createdAt,value
2018-04-09T00:00:12.393Z,991.3
2018-04-09T00:01:13.119Z,991.3
2018-04-09T00:02:13.880Z,991.3
2018-04-09T00:03:14.566Z,991.3
2018-04-09T00:04:15.323Z,991.3
2018-04-09T00:05:16.102Z,991.2
2018-04-09T00:06:17.183Z,991.2
2018-04-09T00:07:17.862Z,991.2
2018-04-09T00:08:18.578Z,991.3
2018-04-09T00:09:19.308Z,991.2
2018-04-09T00:10:20.056Z,991.2
2018-04-09T00:11:20.868Z,991.2
2018-04-09T00:12:21.669Z,991.1
2018-04-09T00:13:22.413Z,991.2
2018-04-09T00:14:23.160Z,991.2
2018-04-09T00:15:23.889Z,991.1
2018-04-09T00:16:24.637Z,991.1
2018-04-09T00:17:25.418Z,991.1
2018-04-09T00:18:26.237Z,991.1
2018-04-09T00:19:26.950Z,991.1
2018-04-09T00:20:27.742Z,991.1
2018-04-09T00:21:28.482Z,991.1
2018-04-09T00:22:29.213Z,991.1
2018-04-09T00:23:29.953Z,991.1
2018-04-09T00:24:30.701Z,991.0
2018-04-09T00:25:31.409Z,991.0
2018-04-09T00:26:32.174Z,991.0
2018-04-09T00:27:32.905Z,991.0
2018-04-09T00:28:33.709Z,991.0
2018-04-09T00:29:34.573Z,991.0
2018-04-09T00:30:35.318Z,991.1
2018-04-09T00:31:36.088Z,991.0
2018-04-09T00:32:36.844Z,991.1
2018-04-09T00:33:37.591Z,991.1
2018-04-09T00:34:38.318Z,991.1
2018-04-09T00:35:39.058Z,991.1
2018-04-09T00:36:39.838Z,991.1
2018-04-09T00:37:40.576Z,991.1
2018-04-09T00:38:41.383Z,991.1
2018-04-09T00:39:42.131Z,991.1
2018-04-09T00:40:42.850Z,991.1
2018-04-09T00:41:43.659Z,991.1
2018-04-09T00:42:44.383Z,991.1
2018-04-09T00:43:45.117Z,991.0
2018-04-09T00:44:45.919Z,991.0
2018-04-09T00:45:46.645Z,991.0
2018-04-09T00:46:47.475Z,991.0
2018-04-09T00:47:48.258Z,991.0
2018-04-09T00:48:49.071Z,991.0
2018-04-09T00:49:49.809Z,991.0
2018-04-09T00:50:50.607Z,990.9
2018-04-09T00:51:51.328Z,990.9
2018-04-09T00:52:52.058Z,990.9
2018-04-09T00:53:52.790Z,990.9
2018-04-09T00:54:53.530Z,990.9
2018-04-09T00:55:54.259Z,990.9
2018-04-09T00:56:54.991Z,990.9
2018-04-09T00:57:56.066Z,990.8
2018-04-09T00:58:56.802Z,990.9
2018-04-09T00:59:57.529Z,990.9
2018-04-09T01:00:58.259Z,990.9
2018-04-09T01:01:58.983Z,990.9
2018-04-09T01:03:00.072Z,990.9
2018-04-09T01:04:00.881Z,990.9
2018-04-09T01:05:01.702Z,990.9
2018-04-09T01:06:02.449Z,990.9
2018-04-09T01:07:03.176Z,990.9
2018-04-09T01:08:03.926Z,990.8
2018-04-09T01:09:04.651Z,990.9
2018-04-09T01:10:05.386Z,990.9
2018-04-09T01:11:06.216Z,990.8
2018-04-09T01:12:06.989Z,990.9
2018-04-09T01:13:07.744Z,990.8
2018-04-09T01:14:08.533Z,990.8
2018-04-09T01:15:09.268Z,990.8
2018-04-09T01:16:10.011Z,990.8
2018-04-09T01:17:10.741Z,990.8
2018-04-09T01:18:11.520Z,990.8
2018-04-09T01:19:12.311Z,990.8
2018-04-09T01:20:13.067Z,990.8
2018-04-09T01:21:13.868Z,990.8
2018-04-09T01:22:14.622Z,990.7
2018-04-09T01:23:15.367Z,990.8
2018-04-09T01:24:16.098Z,990.8
2018-04-09T01:25:16.830Z,990.8
2018-04-09T01:26:17.565Z,990.7
2018-04-09T01:27:18.306Z,990.7
2018-04-09T01:28:19.047Z,990.7
2018-04-09T01:29:19.881Z,990.7
2018-04-09T01:30:20.602Z,990.7
2018-04-09T01:31:21.343Z,990.7
2018-04-09T01:32:22.089Z,990.7
2018-04-09T01:33:22.877Z,990.7
2018-04-09T01:34:23.602Z,990.7
2018-04-09T01:35:24.328Z,990.7
2018-04-09T01:36:25.086Z,990.7
2018-04-09T01:37:25.829Z,990.7
2018-04-09T01:38:26.632Z,990.7
2018-04-09T01:39:27.450Z,990.6
2018-04-09T01:40:28.220Z,990.7
2018-04-09T01:41:28.962Z,990.6
2018-04-09T01:42:29.772Z,990.7
2018-04-09T01:43:30.535Z,990.7
2018-04-09T01:44:31.411Z,990.7
2018-04-09T01:45:32.143Z,990.7
2018-04-09T01:46:32.883Z,990.7
2018-04-09T01:47:33.616Z,990.7
2018-04-09T01:48:34.355Z,990.7
2018-04-09T01:49:35.098Z,990.7
2018-04-09T01:50:35.891Z,990.7
2018-04-09T01:51:36.677Z,990.7
2018-04-09T01:52:37.401Z,990.7
2018-04-09T01:53:38.145Z,990.7
2018-04-09T01:54:38.870Z,990.7
2018-04-09T01:55:39.615Z,990.7
2018-04-09T01:56:40.353Z,990.7
2018-04-09T01:57:41.087Z,990.7
2018-04-09T01:58:41.887Z,990.7
2018-04-09T01:59:42.595Z,990.6
2018-04-09T02:00:43.337Z,990.6
2018-04-09T02:01:44.063Z,990.6
2018-04-09T02:02:44.802Z,990.6
2018-04-09T02:03:45.523Z,990.5
2018-04-09T02:04:46.252Z,990.5
2018-04-09T02:05:46.996Z,990.5
2018-04-09T02:06:47.747Z,990.5
2018-04-09T02:07:48.473Z,990.5
2018-04-09T02:08:49.565Z,990.6
2018-04-09T02:09:50.304Z,990.5
2018-04-09T02:10:51.115Z,990.5
2018-04-09T02:11:51.860Z,990.6
2018-04-09T02:12:52.589Z,990.5
2018-04-09T02:13:53.680Z,990.6
2018-04-09T02:14:54.425Z,990.6
2018-04-09T02:15:55.227Z,990.5
2018-04-09T02:16:55.964Z,990.5
2018-04-09T02:17:56.703Z,990.5
2018-04-09T02:18:57.440Z,990.5
2018-04-09T02:19:58.224Z,990.5
2018-04-09T02:20:59.000Z,990.5
2018-04-09T02:21:59.808Z,990.5
2018-04-09T02:23:00.583Z,990.5
2018-04-09T02:24:01.378Z,990.4
2018-04-09T02:25:02.105Z,990.5
2018-04-09T02:26:02.846Z,990.5
2018-04-09T02:27:03.650Z,990.5
2018-04-09T02:28:04.388Z,990.5
2018-04-09T02:29:05.125Z,990.5
2018-04-09T02:30:05.937Z,990.5
2018-04-09T02:31:06.674Z,990.5
2018-04-09T02:32:07.418Z,990.5
2018-04-09T02:33:08.130Z,990.5
2018-04-09T02:34:08.876Z,990.5
2018-04-09T02:35:09.631Z,990.5
2018-04-09T02:36:10.367Z,990.4
2018-04-09T02:37:11.149Z,990.5
2018-04-09T02:38:11.882Z,990.4
2018-04-09T02:39:12.688Z,990.5
2018-04-09T02:40:13.414Z,990.4
2018-04-09T02:41:14.169Z,990.5
2018-04-09T02:42:14.905Z,990.5
2018-04-09T02:43:15.990Z,990.4
2018-04-09T02:44:16.804Z,990.4
2018-04-09T02:45:17.618Z,990.4
2018-04-09T02:46:18.394Z,990.4
2018-04-09T02:47:19.193Z,990.4
2018-04-09T02:48:20.035Z,990.4
2018-04-09T02:49:20.761Z,990.4
2018-04-09T02:50:21.481Z,990.4
2018-04-09T02:51:22.230Z,990.4
2018-04-09T02:52:22.962Z,990.4
2018-04-09T02:53:23.698Z,990.4
2018-04-09T02:54:24.515Z,990.4
2018-04-09T02:55:25.609Z,990.4
2018-04-09T02:56:26.412Z,990.4
2018-04-09T02:57:27.161Z,990.4
2018-04-09T02:58:27.901Z,990.4
2018-04-09T02:59:28.711Z,990.4
2018-04-09T03:00:29.434Z,990.4
2018-04-09T03:01:30.187Z,990.4
2018-04-09T03:02:30.975Z,990.4
2018-04-09T03:03:31.700Z,990.4
2018-04-09T03:04:32.434Z,990.4
2018-04-09T03:05:33.161Z,990.4
2018-04-09T03:06:33.900Z,990.4
2018-04-09T03:07:34.634Z,990.4
2018-04-09T03:08:35.376Z,990.4
2018-04-09T03:09:36.125Z,990.4
2018-04-09T03:10:36.849Z,990.4
2018-04-09T03:11:37.579Z,990.4
2018-04-09T03:12:38.372Z,990.4
2018-04-09T03:13:39.122Z,990.4
2018-04-09T03:14:39.868Z,990.4
2018-04-09T03:15:40.652Z,990.4
2018-04-09T03:16:41.331Z,990.4
2018-04-09T03:17:42.062Z,990.4
2018-04-09T03:18:42.832Z,990.4
2018-04-09T03:19:43.548Z,990.4
2018-04-09T03:20:44.297Z,990.4
2018-04-09T03:21:45.072Z,990.4
2018-04-09T03:22:45.800Z,990.4
2018-04-09T03:23:46.695Z,990.5
2018-04-09T03:24:47.490Z,990.5
2018-04-09T03:25:48.237Z,990.5
2018-04-09T03:26:48.977Z,990.5
2018-04-09T03:27:49.716Z,990.5
2018-04-09T03:28:50.522Z,990.5
2018-04-09T03:29:51.251Z,990.5
2018-04-09T03:30:52.438Z,990.5
2018-04-09T03:31:53.176Z,990.5
2018-04-09T03:32:53.971Z,990.5
2018-04-09T03:33:54.722Z,990.5
2018-04-09T03:34:55.448Z,990.5
2018-04-09T03:35:56.487Z,990.6
2018-04-09T03:36:57.231Z,990.5
2018-04-09T03:37:58.025Z,990.5
2018-04-09T03:38:58.838Z,990.5
2018-04-09T03:39:59.582Z,990.5
2018-04-09T03:41:00.373Z,990.6
2018-04-09T03:42:01.086Z,990.6
2018-04-09T03:43:01.829Z,990.6
2018-04-09T03:44:02.543Z,990.6
2018-04-09T03:45:03.295Z,990.6
2018-04-09T03:46:04.093Z,990.6
2018-04-09T03:47:04.813Z,990.6
2018-04-09T03:48:05.539Z,990.6
2018-04-09T03:49:06.312Z,990.6
2018-04-09T03:50:07.044Z,990.6
2018-04-09T03:51:07.758Z,990.6
2018-04-09T03:52:08.490Z,990.7
2018-04-09T03:53:09.233Z,990.6
2018-04-09T03:54:09.968Z,990.7
2018-04-09T03:55:10.710Z,990.6
2018-04-09T03:56:11.447Z,990.7
2018-04-09T03:57:12.190Z,990.7
2018-04-09T03:58:12.993Z,990.7
2018-04-09T03:59:13.691Z,990.7
2018-04-09T04:00:14.518Z,990.7
2018-04-09T04:01:15.251Z,990.7
2018-04-09T04:02:15.994Z,990.7
2018-04-09T04:03:16.719Z,990.7
2018-04-09T04:04:17.455Z,990.7
2018-04-09T04:05:18.593Z,990.7
2018-04-09T04:06:19.412Z,990.7
2018-04-09T04:07:20.231Z,990.7
2018-04-09T04:08:21.013Z,990.7
2018-04-09T04:09:21.739Z,990.7
2018-04-09T04:10:22.770Z,990.7
2018-04-09T04:11:23.499Z,990.7
2018-04-09T04:12:24.247Z,990.7
2018-04-09T04:13:24.991Z,990.7
2018-04-09T04:14:25.824Z,990.7
2018-04-09T04:15:26.579Z,990.7
2018-04-09T04:16:27.364Z,990.7
2018-04-09T04:17:28.112Z,990.7
2018-04-09T04:18:28.837Z,990.7
2018-04-09T04:19:29.654Z,990.7
2018-04-09T04:20:30.433Z,990.7
2018-04-09T04:21:31.243Z,990.7
2018-04-09T04:22:31.969Z,990.8
2018-04-09T04:23:32.738Z,990.8
2018-04-09T04:24:33.510Z,990.8
2018-04-09T04:25:34.257Z,990.8
2018-04-09T04:26:34.986Z,990.8
2018-04-09T04:27:35.724Z,990.7
2018-04-09T04:28:36.579Z,990.8
2018-04-09T04:29:37.328Z,990.7
2018-04-09T04:30:38.070Z,990.8
2018-04-09T04:31:38.821Z,990.7
2018-04-09T04:32:39.614Z,990.8
2018-04-09T04:33:40.642Z,990.7
2018-04-09T04:34:41.367Z,990.7
2018-04-09T04:35:42.099Z,990.7
2018-04-09T04:36:42.854Z,990.7
2018-04-09T04:37:43.671Z,990.7
2018-04-09T04:38:44.401Z,990.7
2018-04-09T04:39:45.203Z,990.7
2018-04-09T04:40:45.950Z,990.7
2018-04-09T04:41:46.748Z,990.8
2018-04-09T04:42:47.565Z,990.8
2018-04-09T04:43:48.296Z,990.7
2018-04-09T04:44:49.071Z,990.7
2018-04-09T04:45:49.809Z,990.8
2018-04-09T04:46:50.624Z,990.8
2018-04-09T04:47:51.403Z,990.7
2018-04-09T04:48:52.146Z,990.7
2018-04-09T04:49:52.918Z,990.7
2018-04-09T04:50:53.655Z,990.7
2018-04-09T04:51:54.397Z,990.7
2018-04-09T04:52:55.191Z,990.7
2018-04-09T04:53:55.922Z,990.7
2018-04-09T04:54:56.703Z,990.7
2018-04-09T04:55:57.498Z,990.8
2018-04-09T04:56:58.289Z,990.8
2018-04-09T04:57:59.050Z,990.7
2018-04-09T04:58:59.786Z,990.7
2018-04-09T05:00:00.513Z,990.7
2018-04-09T05:01:01.239Z,990.7
2018-04-09T05:02:01.982Z,990.7
2018-04-09T05:03:02.806Z,990.7
2018-04-09T05:04:03.528Z,990.7
2018-04-09T05:05:04.257Z,990.7
2018-04-09T05:06:05.006Z,990.7
2018-04-09T05:07:05.741Z,990.7
2018-04-09T05:08:06.480Z,990.7
2018-04-09T05:09:07.193Z,990.7
2018-04-09T05:10:07.925Z,990.8
2018-04-09T05:11:08.657Z,990.7
2018-04-09T05:12:09.465Z,990.8
2018-04-09T05:13:10.274Z,990.7
2018-04-09T05:14:11.064Z,990.7
2018-04-09T05:15:11.833Z,990.8
2018-04-09T05:16:12.564Z,990.8
2018-04-09T05:17:13.399Z,990.7
2018-04-09T05:18:14.178Z,990.8
2018-04-09T05:19:14.913Z,990.8
2018-04-09T05:20:15.654Z,990.8
2018-04-09T05:21:16.428Z,990.8
2018-04-09T05:22:17.177Z,990.8
2018-04-09T05:23:17.959Z,990.9
2018-04-09T05:24:18.702Z,990.8
2018-04-09T05:25:19.490Z,990.8
2018-04-09T05:26:20.267Z,990.8
2018-04-09T05:27:21.007Z,990.8
2018-04-09T05:28:21.763Z,990.8
2018-04-09T05:29:22.491Z,990.8
2018-04-09T05:30:23.222Z,990.8
2018-04-09T05:31:23.957Z,990.8
2018-04-09T05:32:24.737Z,990.8
2018-04-09T05:33:25.549Z,990.8
2018-04-09T05:34:26.338Z,990.8
2018-04-09T05:35:27.077Z,990.8
2018-04-09T05:36:27.814Z,990.8
2018-04-09T05:37:28.550Z,990.8
2018-04-09T05:38:29.294Z,990.8
2018-04-09T05:39:30.034Z,990.8
2018-04-09T05:40:30.884Z,990.8
2018-04-09T05:41:31.648Z,990.8
2018-04-09T05:42:32.418Z,990.8
2018-04-09T05:43:33.167Z,990.7
2018-04-09T05:44:33.970Z,990.7
2018-04-09T05:45:34.798Z,990.7
2018-04-09T05:46:35.564Z,990.7
2018-04-09T05:47:36.396Z,990.6
2018-04-09T05:48:37.170Z,990.6
2018-04-09T05:49:37.922Z,990.6
2018-04-09T05:50:38.681Z,990.7
2018-04-09T05:51:39.420Z,990.6
2018-04-09T05:52:40.280Z,990.7
2018-04-09T05:53:41.051Z,990.7
2018-04-09T05:54:41.860Z,990.6
2018-04-09T05:55:42.679Z,990.7
2018-04-09T05:56:43.462Z,990.7
2018-04-09T05:57:44.206Z,990.7
2018-04-09T05:58:44.936Z,990.7
2018-04-09T05:59:45.677Z,990.7
2018-04-09T06:00:46.428Z,990.7
2018-04-09T06:01:47.238Z,990.7
2018-04-09T06:02:48.328Z,990.7
2018-04-09T06:03:49.068Z,990.7
2018-04-09T06:04:49.813Z,990.7
2018-04-09T06:05:50.550Z,990.7
2018-04-09T06:06:51.309Z,990.7
2018-04-09T06:07:52.047Z,990.7
2018-04-09T06:08:52.782Z,990.7
2018-04-09T06:09:53.513Z,990.7
2018-04-09T06:10:54.251Z,990.7
2018-04-09T06:11:54.983Z,990.8
2018-04-09T06:12:55.738Z,990.8
2018-04-09T06:13:56.529Z,990.8
2018-04-09T06:14:57.264Z,990.8
2018-04-09T06:15:57.994Z,990.8
2018-04-09T06:16:58.742Z,990.8
2018-04-09T06:17:59.488Z,990.8
2018-04-09T06:19:00.230Z,990.8
2018-04-09T06:20:01.049Z,990.8
2018-04-09T06:21:01.892Z,990.8
2018-04-09T06:22:02.716Z,990.8
2018-04-09T06:23:03.446Z,990.8
2018-04-09T06:24:04.187Z,990.8
2018-04-09T06:25:04.908Z,990.9
2018-04-09T06:26:05.729Z,990.8
2018-04-09T06:27:06.468Z,990.9
2018-04-09T06:28:07.228Z,990.9
2018-04-09T06:29:07.977Z,990.8
2018-04-09T06:30:08.718Z,990.8
2018-04-09T06:31:09.812Z,990.8
2018-04-09T06:32:10.538Z,990.8
2018-04-09T06:33:11.270Z,990.8
2018-04-09T06:34:12.026Z,990.8
2018-04-09T06:35:12.810Z,990.8
2018-04-09T06:36:13.541Z,990.8
2018-04-09T06:37:14.288Z,990.8
2018-04-09T06:38:15.019Z,990.8
2018-04-09T06:39:15.782Z,990.8
2018-04-09T06:40:16.555Z,990.8
2018-04-09T06:41:17.247Z,990.8
2018-04-09T06:42:18.037Z,990.8
2018-04-09T06:43:18.788Z,990.8
2018-04-09T06:44:19.603Z,990.8
2018-04-09T06:45:20.334Z,990.8
2018-04-09T06:46:21.080Z,990.8
2018-04-09T06:47:21.939Z,990.8
2018-04-09T06:48:22.677Z,990.7
2018-04-09T06:49:23.487Z,990.7
2018-04-09T06:50:24.277Z,990.7
2018-04-09T06:51:25.037Z,990.7
2018-04-09T06:52:25.815Z,990.7
2018-04-09T06:53:26.558Z,990.7
2018-04-09T06:54:27.374Z,990.7
2018-04-09T06:55:28.129Z,990.7
2018-04-09T06:56:28.888Z,990.7
2018-04-09T06:57:29.682Z,990.7
2018-04-09T06:58:30.357Z,990.7
2018-04-09T06:59:31.101Z,990.7
2018-04-09T07:00:31.888Z,990.7
2018-04-09T07:01:32.623Z,990.7
2018-04-09T07:02:33.417Z,990.7
2018-04-09T07:03:34.164Z,990.7
2018-04-09T07:04:34.930Z,990.7
2018-04-09T07:05:35.707Z,990.7
2018-04-09T07:06:36.518Z,990.7
2018-04-09T07:07:37.269Z,990.7
2018-04-09T07:08:38.007Z,990.7
2018-04-09T07:09:38.802Z,990.6
2018-04-09T07:10:39.541Z,990.6
2018-04-09T07:11:40.288Z,990.7
2018-04-09T07:12:41.025Z,990.6
2018-04-09T07:13:41.763Z,990.7
2018-04-09T07:14:42.550Z,990.7
2018-04-09T07:15:43.289Z,990.7
2018-04-09T07:16:44.029Z,990.7
2018-04-09T07:17:44.776Z,990.7
2018-04-09T07:18:45.515Z,990.7
2018-04-09T07:19:46.301Z,990.7
2018-04-09T07:20:47.048Z,990.7
2018-04-09T07:21:47.872Z,990.7
2018-04-09T07:22:48.630Z,990.7
2018-04-09T07:23:49.381Z,990.7
2018-04-09T07:24:50.121Z,990.7
2018-04-09T07:25:50.862Z,990.7
2018-04-09T07:26:51.603Z,990.7
2018-04-09T07:27:52.345Z,990.7
2018-04-09T07:28:53.370Z,990.7
2018-04-09T07:29:54.194Z,990.8
2018-04-09T07:30:55.014Z,990.8
2018-04-09T07:31:55.769Z,990.8
2018-04-09T07:32:56.500Z,990.8
2018-04-09T07:33:57.288Z,990.9
2018-04-09T07:34:58.060Z,990.8
2018-04-09T07:35:58.800Z,990.9
2018-04-09T07:36:59.589Z,990.9
2018-04-09T07:38:00.341Z,990.8
2018-04-09T07:39:01.107Z,990.8
2018-04-09T07:40:01.899Z,990.8
2018-04-09T07:41:02.683Z,990.8
2018-04-09T07:42:03.423Z,990.8
2018-04-09T07:43:04.166Z,990.8
2018-04-09T07:44:04.898Z,990.8
2018-04-09T07:45:05.638Z,990.8
2018-04-09T07:46:06.390Z,990.8
2018-04-09T07:47:07.141Z,990.7
2018-04-09T07:48:07.908Z,990.7
2018-04-09T07:49:08.734Z,990.7
2018-04-09T07:50:09.546Z,990.7
2018-04-09T07:51:10.322Z,990.8
2018-04-09T07:52:11.061Z,990.8
2018-04-09T07:53:11.793Z,990.8
2018-04-09T07:54:12.544Z,990.8
2018-04-09T07:55:13.302Z,990.8
2018-04-09T07:56:14.192Z,990.8
2018-04-09T07:57:14.955Z,990.8
2018-04-09T07:58:15.714Z,990.8
2018-04-09T07:59:16.524Z,990.8
2018-04-09T08:00:17.275Z,990.8
2018-04-09T08:01:18.373Z,990.8
2018-04-09T08:02:19.188Z,990.8
2018-04-09T08:03:19.940Z,990.8
2018-04-09T08:04:20.668Z,990.8
2018-04-09T08:05:21.430Z,990.8
2018-04-09T08:06:22.213Z,990.8
2018-04-09T08:07:22.917Z,990.8
2018-04-09T08:08:23.719Z,990.8
2018-04-09T08:09:24.508Z,990.8
2018-04-09T08:10:25.273Z,990.8
2018-04-09T08:11:26.158Z,990.8
2018-04-09T08:12:26.902Z,990.8
2018-04-09T08:13:27.653Z,990.8
2018-04-09T08:14:28.397Z,990.8
2018-04-09T08:15:29.154Z,990.8
2018-04-09T08:16:29.912Z,990.8
2018-04-09T08:17:30.653Z,990.8
2018-04-09T08:18:31.464Z,990.8
2018-04-09T08:19:32.211Z,990.8
2018-04-09T08:20:33.007Z,990.8
2018-04-09T08:21:33.761Z,990.8
2018-04-09T08:22:34.530Z,990.8
2018-04-09T08:23:35.633Z,990.8
2018-04-09T08:24:36.403Z,990.8
2018-04-09T08:25:37.164Z,990.8
2018-04-09T08:26:37.968Z,990.9
2018-04-09T08:27:38.773Z,990.8
2018-04-09T08:28:39.520Z,990.8
2018-04-09T08:29:40.254Z,990.9
2018-04-09T08:30:41.063Z,990.8
2018-04-09T08:31:41.809Z,990.8
2018-04-09T08:32:42.550Z,990.8
2018-04-09T08:33:43.303Z,990.9
2018-04-09T08:34:44.117Z,990.9
2018-04-09T08:35:44.876Z,990.9
2018-04-09T08:36:45.677Z,990.9
2018-04-09T08:37:46.421Z,990.9
2018-04-09T08:38:47.181Z,990.9
2018-04-09T08:39:48.009Z,990.9
2018-04-09T08:40:48.868Z,990.9
2018-04-09T08:41:49.767Z,990.9
2018-04-09T08:42:50.578Z,990.9
2018-04-09T08:43:51.407Z,990.9
2018-04-09T08:44:52.141Z,990.9
2018-04-09T08:45:52.900Z,990.9
2018-04-09T08:46:53.735Z,990.9
2018-04-09T08:47:54.552Z,990.9
2018-04-09T08:48:55.290Z,990.9
2018-04-09T08:49:56.044Z,990.9
2018-04-09T08:50:56.788Z,990.9
2018-04-09T08:51:57.543Z,990.9
2018-04-09T08:52:58.277Z,990.9
2018-04-09T08:53:59.039Z,990.9
2018-04-09T08:54:59.785Z,990.9
2018-04-09T08:56:00.517Z,990.9
2018-04-09T08:57:01.277Z,990.9
2018-04-09T08:58:02.081Z,990.9
2018-04-09T08:59:02.813Z,990.9
2018-04-09T09:00:03.565Z,990.9
2018-04-09T09:01:04.333Z,990.9
2018-04-09T09:02:05.084Z,990.9
2018-04-09T09:03:05.852Z,990.9
2018-04-09T09:04:06.601Z,990.9
2018-04-09T09:05:07.338Z,990.9
2018-04-09T09:06:08.080Z,990.9
2018-04-09T09:07:08.840Z,991.0
2018-04-09T09:08:09.600Z,990.9
2018-04-09T09:09:10.355Z,991.0
2018-04-09T09:10:11.176Z,991.0
2018-04-09T09:11:11.930Z,991.0
2018-04-09T09:12:12.720Z,991.0
2018-04-09T09:13:13.446Z,991.0
2018-04-09T09:14:14.214Z,991.0
2018-04-09T09:15:15.059Z,991.0
2018-04-09T09:16:15.808Z,991.0
2018-04-09T09:17:16.561Z,991.0
2018-04-09T09:18:17.298Z,990.9
2018-04-09T09:19:18.089Z,991.0
2018-04-09T09:20:18.905Z,991.0
2018-04-09T09:21:19.661Z,991.0
2018-04-09T09:22:20.468Z,990.9
2018-04-09T09:23:21.235Z,991.0
2018-04-09T09:24:21.977Z,991.0
2018-04-09T09:25:22.734Z,991.0
2018-04-09T09:26:23.496Z,991.0
2018-04-09T09:27:24.243Z,991.0
2018-04-09T09:28:24.976Z,991.0
2018-04-09T09:29:25.773Z,991.0
2018-04-09T09:30:26.580Z,991.0
2018-04-09T09:31:27.387Z,991.0
2018-04-09T09:32:28.154Z,991.0
2018-04-09T09:33:28.901Z,991.1
2018-04-09T09:34:29.650Z,991.0
2018-04-09T09:35:30.495Z,991.0
2018-04-09T09:36:31.244Z,991.1
2018-04-09T09:37:32.007Z,991.0
2018-04-09T09:38:32.748Z,991.0
2018-04-09T09:39:33.572Z,991.1
2018-04-09T09:40:34.309Z,991.1
2018-04-09T09:41:35.067Z,991.1
2018-04-09T09:42:35.866Z,991.1
2018-04-09T09:43:36.630Z,991.1
2018-04-09T09:44:37.363Z,991.1
2018-04-09T09:45:38.497Z,991.0
2018-04-09T09:46:39.194Z,991.0
2018-04-09T09:47:40.052Z,991.0
2018-04-09T09:48:40.890Z,991.1
2018-04-09T09:49:41.716Z,991.0
2018-04-09T09:50:42.547Z,991.0
2018-04-09T09:51:44.296Z,991.0
2018-04-09T09:52:45.349Z,991.0
2018-04-09T09:53:46.102Z,991.0
2018-04-09T09:54:46.838Z,991.0
2018-04-09T09:55:47.664Z,991.0
2018-04-09T09:56:48.512Z,991.0
2018-04-09T09:57:49.381Z,991.0
2018-04-09T09:58:50.434Z,990.9
2018-04-09T09:59:51.246Z,990.9
2018-04-09T10:00:52.062Z,990.9
2018-04-09T10:01:52.822Z,990.9
2018-04-09T10:02:53.568Z,990.9
2018-04-09T10:03:54.579Z,990.8
2018-04-09T10:04:55.541Z,990.9
2018-04-09T10:05:56.388Z,990.9
2018-04-09T10:06:57.187Z,990.9
2018-04-09T10:07:57.922Z,990.8
2018-04-09T10:08:58.727Z,990.8
2018-04-09T10:09:59.486Z,990.8
2018-04-09T10:11:00.217Z,990.8
2018-04-09T10:12:00.981Z,990.8
2018-04-09T10:13:01.724Z,990.8
2018-04-09T10:14:02.453Z,990.8
2018-04-09T10:15:03.208Z,990.8
2018-04-09T10:16:04.019Z,990.7
2018-04-09T10:17:04.836Z,990.7
2018-04-09T10:18:05.650Z,990.7
2018-04-09T10:19:06.488Z,990.7
2018-04-09T10:20:07.249Z,990.7
2018-04-09T10:21:08.001Z,990.8
2018-04-09T10:22:08.739Z,990.8
2018-04-09T10:23:09.581Z,990.7
2018-04-09T10:24:10.362Z,990.7
2018-04-09T10:25:11.188Z,990.7
2018-04-09T10:26:11.943Z,990.7
2018-04-09T10:27:12.688Z,990.7
2018-04-09T10:28:13.445Z,990.7
2018-04-09T10:29:14.201Z,990.7
2018-04-09T10:30:15.043Z,990.7
2018-04-09T10:31:15.799Z,990.7
2018-04-09T10:32:16.542Z,990.7
2018-04-09T10:33:17.305Z,990.7
2018-04-09T10:34:18.068Z,990.7
2018-04-09T10:35:18.801Z,990.7
2018-04-09T10:36:19.533Z,990.7
2018-04-09T10:37:20.332Z,990.6
2018-04-09T10:38:21.133Z,990.7
2018-04-09T10:39:21.982Z,990.6
2018-04-09T10:40:22.722Z,990.6
2018-04-09T10:41:23.483Z,990.6
2018-04-09T10:42:24.218Z,990.6
2018-04-09T10:43:24.969Z,990.6
2018-04-09T10:44:25.817Z,990.6
2018-04-09T10:45:26.590Z,990.5
2018-04-09T10:46:27.442Z,990.5
2018-04-09T10:47:28.213Z,990.5
2018-04-09T10:48:29.098Z,990.5
2018-04-09T10:49:29.847Z,990.5
2018-04-09T10:50:30.619Z,990.5
2018-04-09T10:51:31.475Z,990.5
2018-04-09T10:52:32.224Z,990.5
2018-04-09T10:53:32.957Z,990.5
2018-04-09T10:54:33.743Z,990.5
2018-04-09T10:55:34.581Z,990.4
2018-04-09T10:56:35.324Z,990.5
2018-04-09T10:57:36.081Z,990.5
2018-04-09T10:58:36.864Z,990.4
2018-04-09T10:59:38.365Z,990.5
2018-04-09T11:00:39.066Z,990.4
2018-04-09T11:01:39.850Z,990.4
2018-04-09T11:02:40.590Z,990.4
2018-04-09T11:03:41.348Z,990.4
2018-04-09T11:04:42.438Z,990.4
2018-04-09T11:05:43.188Z,990.3
2018-04-09T11:06:43.942Z,990.3
2018-04-09T11:07:44.679Z,990.3
2018-04-09T11:08:45.496Z,990.2
2018-04-09T11:09:46.328Z,990.3
2018-04-09T11:10:47.115Z,990.3
2018-04-09T11:11:47.923Z,990.3
2018-04-09T11:12:48.729Z,990.3
2018-04-09T11:13:49.552Z,990.3
2018-04-09T11:14:50.326Z,990.2
2018-04-09T11:15:51.161Z,990.2
2018-04-09T11:16:51.889Z,990.2
2018-04-09T11:17:52.659Z,990.2
2018-04-09T11:18:53.456Z,990.2
2018-04-09T11:19:54.252Z,990.1
2018-04-09T11:20:55.243Z,990.1
2018-04-09T11:21:56.112Z,990.1
2018-04-09T11:22:56.923Z,990.1
2018-04-09T11:23:57.730Z,990.1
2018-04-09T11:24:58.496Z,990.1
2018-04-09T11:25:59.298Z,990.1
2018-04-09T11:27:00.096Z,990.1
2018-04-09T11:28:00.852Z,990.1
2018-04-09T11:29:01.647Z,990.1
2018-04-09T11:30:02.424Z,990.1
2018-04-09T11:31:03.187Z,990.1
2018-04-09T11:32:04.004Z,990.1
2018-04-09T11:33:04.738Z,990.1
2018-04-09T11:34:05.499Z,990.0
2018-04-09T11:35:06.319Z,990.1
2018-04-09T11:36:07.107Z,990.1
2018-04-09T11:37:07.891Z,990.0
2018-04-09T11:38:08.685Z,990.1
2018-04-09T11:39:09.433Z,990.0
2018-04-09T11:40:10.198Z,990.0
2018-04-09T11:41:11.041Z,990.0
2018-04-09T11:42:11.856Z,990.0
2018-04-09T11:43:12.657Z,990.0
2018-04-09T11:44:13.361Z,990.0
2018-04-09T11:45:14.111Z,990.0
2018-04-09T11:46:14.873Z,990.0
2018-04-09T11:47:15.724Z,990.0
2018-04-09T11:48:16.503Z,989.9
2018-04-09T11:49:17.327Z,990.0
2018-04-09T11:50:18.016Z,989.9
2018-04-09T11:51:18.762Z,989.9
2018-04-09T11:52:19.586Z,989.9
2018-04-09T11:53:20.381Z,990.0
2018-04-09T11:54:21.426Z,989.9
2018-04-09T11:55:22.236Z,990.0
2018-04-09T11:56:23.026Z,989.9
2018-04-09T11:57:23.769Z,989.9
2018-04-09T11:58:24.527Z,989.9
2018-04-09T11:59:25.355Z,989.9
2018-04-09T12:00:26.113Z,990.0
2018-04-09T12:01:26.940Z,990.0
2018-04-09T12:02:27.685Z,989.9
2018-04-09T12:03:28.431Z,990.0
2018-04-09T12:04:29.197Z,989.9
2018-04-09T12:05:29.964Z,989.9
2018-04-09T12:06:30.769Z,989.9
2018-04-09T12:07:31.610Z,989.9
2018-04-09T12:08:32.425Z,989.9
2018-04-09T12:09:33.251Z,990.0
2018-04-09T12:10:34.012Z,989.9
2018-04-09T12:11:34.759Z,990.0
2018-04-09T12:12:35.520Z,989.9
2018-04-09T12:13:36.268Z,989.9
2018-04-09T12:14:37.003Z,989.9
2018-04-09T12:15:37.776Z,989.9
2018-04-09T12:16:38.508Z,990.0
2018-04-09T12:17:39.266Z,990.0
2018-04-09T12:18:40.118Z,990.0
2018-04-09T12:19:42.029Z,990.0
2018-04-09T12:20:42.659Z,989.9
2018-04-09T12:21:43.508Z,989.9
2018-04-09T12:22:44.910Z,989.9
2018-04-09T12:23:45.628Z,990.0
2018-04-09T12:24:46.465Z,989.9
2018-04-09T12:25:47.215Z,989.9
2018-04-09T12:26:48.046Z,989.9
2018-04-09T12:27:48.844Z,989.9
2018-04-09T12:28:49.669Z,989.9
2018-04-09T12:29:50.631Z,989.9
2018-04-09T12:30:51.688Z,989.9
2018-04-09T12:31:52.427Z,989.9
2018-04-09T12:32:53.188Z,989.9
2018-04-09T12:33:54.083Z,989.9
2018-04-09T12:34:54.828Z,989.9
2018-04-09T12:35:55.531Z,989.9
2018-04-09T12:36:56.284Z,989.9
2018-04-09T12:37:57.031Z,989.9
2018-04-09T12:38:57.837Z,989.9
2018-04-09T12:39:58.609Z,989.9
2018-04-09T12:40:59.438Z,989.8
2018-04-09T12:42:00.267Z,989.8
2018-04-09T12:43:01.068Z,989.8
2018-04-09T12:44:01.930Z,989.9
2018-04-09T12:45:02.739Z,989.8
2018-04-09T12:46:03.502Z,989.8
2018-04-09T12:47:04.247Z,989.8
2018-04-09T12:48:04.989Z,989.8
2018-04-09T12:49:05.740Z,989.8
2018-04-09T12:50:06.593Z,989.7
2018-04-09T12:51:07.347Z,989.8
2018-04-09T12:52:08.089Z,989.7
2018-04-09T12:53:08.842Z,989.7
2018-04-09T12:54:09.584Z,989.7
2018-04-09T12:55:10.403Z,989.7
2018-04-09T12:56:11.188Z,989.7
2018-04-09T12:57:11.939Z,989.6
2018-04-09T12:58:12.754Z,989.7
2018-04-09T12:59:13.503Z,989.6
2018-04-09T13:00:14.632Z,989.7
2018-04-09T13:01:15.390Z,989.6
2018-04-09T13:02:16.141Z,989.6